createdAt,value
2022-12-08T06:13:18.827Z,6.60
2022-12-08T06:16:15.686Z,6.60
2022-12-08T06:39:52.517Z,6.40
2022-12-08T10:20:37.156Z,8.50
2022-12-08T10:26:12.631Z,8.80
2022-12-08T10:29:18.038Z,9.00
2022-12-08T11:25:35.049Z,9.60
2022-12-08T12:59:14.326Z,17.60
2022-12-08T13:02:44.523Z,16.40
2022-12-08T20:09:14.112Z,7.70
2022-12-08T20:11:56.189Z,7.70
2022-12-08T20:14:45.504Z,7.70
2022-12-08T20:17:19.549Z,7.70
2022-12-08T20:19:52.631Z,7.70
2022-12-08T20:22:30.778Z,7.70
2022-12-08T20:25:41.143Z,7.50
2022-12-08T20:28:15.708Z,7.60
2022-12-08T20:30:51.873Z,7.50
2022-12-08T20:33:36.609Z,7.50
2022-12-08T20:36:18.966Z,7.50
2022-12-08T20:38:48.255Z,7.40
2022-12-08T20:41:17.936Z,7.40
2022-12-08T20:43:49.293Z,7.40
2022-12-08T20:46:22.382Z,7.40
2022-12-08T20:48:53.932Z,7.40
2022-12-08T20:51:26.968Z,7.30
2022-12-08T20:54:02.479Z,7.30
2022-12-08T20:56:32.161Z,7.30
2022-12-08T20:59:02.981Z,7.20
2022-12-08T21:01:31.756Z,7.20
2022-12-08T21:04:01.262Z,7.20
2022-12-08T21:06:32.986Z,7.10
2022-12-08T21:09:09.872Z,7.20
2022-12-08T21:11:48.374Z,7.20
2022-12-08T21:14:19.981Z,7.10
2022-12-08T21:16:50.987Z,6.90
2022-12-08T21:19:25.467Z,7.00
2022-12-08T21:21:54.133Z,6.90
2022-12-08T21:24:22.860Z,6.90
2022-12-08T21:26:51.867Z,6.80
2022-12-08T21:29:21.991Z,6.60
2022-12-08T21:31:54.238Z,6.70
2022-12-08T21:34:23.110Z,6.70
2022-12-08T21:36:52.549Z,6.70
2022-12-08T21:39:21.396Z,6.50
2022-12-08T21:42:10.210Z,6.70
2022-12-08T21:44:41.437Z,6.60
2022-12-08T21:47:14.298Z,6.60
2022-12-08T21:49:44.136Z,6.60
2022-12-08T21:52:13.651Z,6.60
2022-12-08T21:54:44.920Z,6.50
2022-12-08T21:57:14.745Z,6.60
2022-12-08T21:59:45.679Z,6.60
2022-12-08T22:02:19.579Z,6.40
2022-12-08T22:04:50.141Z,6.50
2022-12-08T22:07:19.624Z,6.60
2022-12-08T22:09:48.735Z,6.60
2022-12-08T22:12:18.245Z,6.60
2022-12-08T22:14:51.163Z,6.60
2022-12-08T22:17:20.331Z,6.80
2022-12-08T22:19:52.019Z,6.70
2022-12-08T22:22:20.769Z,6.70
2022-12-08T22:24:55.158Z,6.70
2022-12-08T22:27:24.051Z,6.70
2022-12-08T22:29:55.594Z,6.70
2022-12-08T22:32:24.765Z,6.70
2022-12-08T22:34:57.800Z,6.90
2022-12-08T22:37:27.431Z,6.80
2022-12-08T22:39:58.115Z,6.80
2022-12-08T22:42:33.385Z,6.80
2022-12-08T22:45:09.352Z,6.80
2022-12-08T22:47:44.917Z,6.80
2022-12-08T22:50:20.765Z,7.00
2022-12-08T22:55:46.919Z,6.70
2022-12-08T23:13:36.994Z,6.70
2022-12-08T23:16:13.745Z,6.70
2022-12-08T23:18:44.017Z,6.70
2022-12-08T23:21:28.521Z,6.70
2022-12-08T23:24:11.473Z,6.70
2022-12-08T23:27:05.960Z,7.00
2022-12-08T23:30:45.796Z,6.70
2022-12-08T23:37:47.876Z,6.70
2022-12-08T23:40:58.824Z,6.80
2022-12-08T23:43:55.415Z,6.70
2022-12-08T23:54:19.328Z,6.90
2022-12-08T23:57:12.545Z,6.90
